Terminal Aerodrome Forecast
Issued by NWS Binghamton, NY

Home | Current Version | Previous Version | Text Only | Print | Product List | Glossary On
Versions: 1 2 3 4 5 6 7 8 9 10 11 12 13 14 15 16 17
642
FTUS41 KBGM 251733
TAFBGM
TAF
KBGM 251733Z 2518/2618 22010KT P6SM OVC020
      TEMPO 2520/2524 SCT020 BKN050
     FM260100 22006KT P6SM BKN120
      TEMPO 2602/2606 4SM -TSRA OVC040CB
     FM260900 29007KT 5SM BR BKN008
     FM261500 31008KT P6SM SCT050=

USA.gov is the U.S. government's official web portal to all federal, state and local government web resources and services.